createdAt,value
2022-11-25T00:01:34.361Z,100260.97
2022-11-25T00:04:01.981Z,100267.03
2022-11-25T00:06:34.039Z,100262.75
2022-11-25T00:09:11.295Z,100265.66
2022-11-25T00:11:41.266Z,100268.03
2022-11-25T00:14:13.731Z,100268.94
2022-11-25T00:16:46.486Z,100268.59
2022-11-25T00:19:15.628Z,100267.81
2022-11-25T00:21:42.760Z,100275.41
2022-11-25T00:24:11.947Z,100269.06
2022-11-25T00:26:38.846Z,100265.75
2022-11-25T00:29:08.308Z,100270.53
2022-11-25T00:31:37.983Z,100279.91
2022-11-25T00:34:05.661Z,100281.13
2022-11-25T00:36:36.585Z,100280.97
2022-11-25T00:39:16.742Z,100284.28
2022-11-25T00:42:04.532Z,100278.41
2022-11-25T00:44:41.578Z,100287.22
2022-11-25T00:47:18.526Z,100286.53
2022-11-25T00:49:52.001Z,100289.47
2022-11-25T00:52:21.735Z,100286.88
2022-11-25T00:54:50.002Z,100281.22
2022-11-25T00:57:20.469Z,100284.03
2022-11-25T00:59:47.580Z,100289.13
2022-11-25T01:02:16.313Z,100280.28
2022-11-25T01:04:43.369Z,100298.81
2022-11-25T01:07:10.705Z,100295.09
2022-11-25T01:09:37.794Z,100292.81
2022-11-25T01:12:05.772Z,100302.06
2022-11-25T01:14:32.974Z,100304.56
2022-11-25T01:17:00.214Z,100306.44
2022-11-25T01:19:27.252Z,100304.19
2022-11-25T01:21:54.365Z,100304.34
2022-11-25T01:24:23.940Z,100312.59
2022-11-25T01:26:51.181Z,100305.16
2022-11-25T01:29:19.460Z,100319.78
2022-11-25T01:31:47.236Z,100317.06
2022-11-25T01:34:22.939Z,100314.44
2022-11-25T01:36:50.703Z,100308.91
2022-11-25T01:39:30.455Z,100318.28
2022-11-25T01:41:59.505Z,100316.13
2022-11-25T01:44:32.246Z,100303.06
2022-11-25T01:47:02.164Z,100313.13
2022-11-25T01:49:47.379Z,100308.91
2022-11-25T01:52:28.853Z,100304.34
2022-11-25T01:55:02.024Z,100306.97
2022-11-25T01:58:08.935Z,100312.28
2022-11-25T02:00:37.741Z,100314.53
2022-11-25T02:03:06.215Z,100312.72
2022-11-25T02:05:50.450Z,100305.63
2022-11-25T02:08:19.145Z,100319.97
2022-11-25T02:10:46.589Z,100324.38
2022-11-25T02:13:13.566Z,100319.66
2022-11-25T02:15:40.562Z,100318.44
2022-11-25T02:18:08.738Z,100300.13
2022-11-25T02:20:35.694Z,100318.81
2022-11-25T02:23:02.494Z,100323.03
2022-11-25T02:25:37.077Z,100320.31
2022-11-25T02:28:25.132Z,100316.22
2022-11-25T02:30:53.416Z,100309.78
2022-11-25T02:33:21.111Z,100313.50
2022-11-25T02:36:12.567Z,100312.53
2022-11-25T02:38:56.553Z,100322.38
2022-11-25T02:41:32.225Z,100326.09
2022-11-25T02:44:00.208Z,100316.81
2022-11-25T02:46:28.929Z,100311.41
2022-11-25T02:49:14.550Z,100331.50
2022-11-25T02:51:44.928Z,100322.69
2022-11-25T02:54:15.949Z,100323.25
2022-11-25T02:56:43.269Z,100319.16
2022-11-25T02:59:11.174Z,100319.06
2022-11-25T03:01:38.534Z,100320.28
2022-11-25T03:04:06.528Z,100326.19
2022-11-25T03:06:33.603Z,100331.66
2022-11-25T03:09:00.595Z,100323.38
2022-11-25T03:11:46.367Z,100324.31
2022-11-25T03:14:13.314Z,100327.56
2022-11-25T03:16:40.354Z,100332.63
2022-11-25T03:19:08.611Z,100317.72
2022-11-25T03:21:35.758Z,100330.84
2022-11-25T03:24:02.821Z,100325.25
2022-11-25T03:26:29.829Z,100330.69
2022-11-25T03:28:56.795Z,100333.59
2022-11-25T03:31:23.835Z,100333.19
2022-11-25T03:33:50.901Z,100331.38
2022-11-25T03:36:17.873Z,100335.56
2022-11-25T03:38:44.788Z,100342.09
2022-11-25T03:41:11.691Z,100347.88
2022-11-25T03:43:38.592Z,100340.91
2022-11-25T03:46:05.777Z,100342.59
2022-11-25T03:48:32.749Z,100342.34
2022-11-25T03:50:59.693Z,100353.16
2022-11-25T03:53:26.639Z,100341.28
2022-11-25T03:55:53.583Z,100351.34
2022-11-25T03:58:20.529Z,100348.09
2022-11-25T04:00:47.465Z,100352.31
2022-11-25T04:03:14.511Z,100355.91
2022-11-25T04:05:42.051Z,100358.81
2022-11-25T04:08:09.054Z,100360.44
2022-11-25T04:10:36.030Z,100363.69
2022-11-25T04:13:02.953Z,100358.00
2022-11-25T04:15:29.930Z,100357.84
2022-11-25T04:17:56.842Z,100356.91
2022-11-25T04:20:23.757Z,100365.03
2022-11-25T04:22:50.693Z,100366.88
2022-11-25T04:25:17.703Z,100364.16
2022-11-25T04:27:44.933Z,100359.88
2022-11-25T04:30:12.658Z,100372.06
2022-11-25T04:32:39.822Z,100370.44
2022-11-25T04:35:07.307Z,100374.44
2022-11-25T04:37:34.327Z,100377.56
2022-11-25T04:40:01.261Z,100375.53
2022-11-25T04:42:36.468Z,100382.22
2022-11-25T04:45:33.412Z,100393.53
2022-11-25T04:47:59.414Z,100387.59
2022-11-25T04:50:26.500Z,100389.09
2022-11-25T04:52:53.399Z,100398.50
2022-11-25T04:55:20.401Z,100396.59
2022-11-25T04:57:47.417Z,100400.91
2022-11-25T05:00:14.871Z,100392.19
2022-11-25T05:02:42.188Z,100402.09
2022-11-25T05:05:09.379Z,100396.22
2022-11-25T05:07:36.421Z,100390.94
2022-11-25T05:10:03.732Z,100396.34
2022-11-25T05:12:31.041Z,100398.16
2022-11-25T05:14:58.131Z,100399.78
2022-11-25T05:17:30.603Z,100403.94
2022-11-25T05:19:57.598Z,100409.91
2022-11-25T05:22:29.055Z,100407.78
2022-11-25T05:24:56.768Z,100412.66
2022-11-25T05:27:25.471Z,100416.69
2022-11-25T05:29:55.984Z,100411.03
2022-11-25T05:32:23.819Z,100417.03
2022-11-25T05:34:50.902Z,100416.34
2022-11-25T05:37:23.951Z,100416.69
2022-11-25T05:39:51.600Z,100417.06
2022-11-25T05:42:18.777Z,100421.38
2022-11-25T05:44:45.745Z,100424.50
2022-11-25T05:47:12.735Z,100420.09
2022-11-25T05:49:39.837Z,100418.41
2022-11-25T05:52:09.057Z,100425.53
2022-11-25T05:54:36.910Z,100422.03
2022-11-25T05:57:04.074Z,100423.84
2022-11-25T05:59:31.156Z,100429.59
2022-11-25T06:01:58.130Z,100427.09
2022-11-25T06:04:25.086Z,100425.53
2022-11-25T06:06:52.125Z,100428.09
2022-11-25T06:09:19.083Z,100436.59
2022-11-25T06:11:46.013Z,100441.38
2022-11-25T06:14:13.044Z,100433.00
2022-11-25T06:16:41.430Z,100438.66
2022-11-25T06:19:08.459Z,100430.41
2022-11-25T06:21:36.457Z,100449.28
2022-11-25T06:24:03.551Z,100443.84
2022-11-25T06:26:30.501Z,100446.34
2022-11-25T06:28:57.490Z,100438.44
2022-11-25T06:31:26.488Z,100449.97
2022-11-25T06:33:54.411Z,100440.03
2022-11-25T06:36:22.424Z,100447.03
2022-11-25T06:38:53.053Z,100439.78
2022-11-25T06:41:21.661Z,100438.78
2022-11-25T06:43:48.698Z,100446.34
2022-11-25T06:46:24.450Z,100449.63
2022-11-25T06:48:53.049Z,100444.19
2022-11-25T06:51:20.229Z,100450.63
2022-11-25T06:53:47.269Z,100456.41
2022-11-25T06:56:26.646Z,100454.50
2022-11-25T06:58:54.578Z,100466.03
2022-11-25T07:01:28.618Z,100464.78
2022-11-25T07:04:00.883Z,100466.81
2022-11-25T07:06:27.975Z,100458.13
2022-11-25T07:08:55.416Z,100464.22
2022-11-25T07:11:23.453Z,100465.91
2022-11-25T07:14:03.260Z,100467.81
2022-11-25T07:16:32.512Z,100470.63
2022-11-25T07:19:02.098Z,100465.78
2022-11-25T07:21:31.152Z,100472.56
2022-11-25T07:24:01.100Z,100470.72
2022-11-25T07:26:32.543Z,100471.88
2022-11-25T07:29:06.369Z,100480.44
2022-11-25T07:31:43.849Z,100478.00
2022-11-25T07:34:21.125Z,100479.44
2022-11-25T07:36:50.182Z,100475.06
2022-11-25T07:39:21.869Z,100476.28
2022-11-25T07:41:51.976Z,100482.38
2022-11-25T07:44:19.856Z,100484.66
2022-11-25T07:46:49.375Z,100487.50
2022-11-25T07:49:24.917Z,100477.66
2022-11-25T07:51:59.852Z,100484.34
2022-11-25T07:54:27.142Z,100482.72
2022-11-25T07:56:54.178Z,100489.06
2022-11-25T07:59:23.565Z,100486.78
2022-11-25T08:01:53.203Z,100482.81
2022-11-25T08:04:21.299Z,100505.13
2022-11-25T08:06:51.089Z,100495.50
2022-11-25T08:09:21.419Z,100498.91
2022-11-25T08:11:49.750Z,100501.59
2022-11-25T08:14:17.800Z,100497.97
2022-11-25T08:16:45.393Z,100499.56
2022-11-25T08:19:16.080Z,100504.28
2022-11-25T08:21:43.550Z,100503.38
2022-11-25T08:24:17.240Z,100504.00
2022-11-25T08:26:45.131Z,100507.94
2022-11-25T08:29:15.777Z,100502.06
2022-11-25T08:31:43.434Z,100504.66
2022-11-25T08:34:20.217Z,100519.25
2022-11-25T08:36:48.813Z,100510.97
2022-11-25T08:39:51.297Z,100514.22
2022-11-25T08:42:07.632Z,100518.09
2022-11-25T08:44:35.809Z,100521.13
2022-11-25T08:47:02.840Z,100525.06
2022-11-25T08:49:34.787Z,100529.53
2022-11-25T08:52:05.969Z,100530.41
2022-11-25T08:54:32.915Z,100519.66
2022-11-25T08:57:00.794Z,100535.53
2022-11-25T08:59:27.748Z,100545.22
2022-11-25T09:01:55.653Z,100545.25
2022-11-25T09:04:22.688Z,100541.38
2022-11-25T09:06:49.768Z,100537.41
2022-11-25T09:09:16.753Z,100537.66
2022-11-25T09:11:43.863Z,100536.91
2022-11-25T09:14:10.987Z,100543.66
2022-11-25T09:16:38.063Z,100537.19
2022-11-25T09:19:06.633Z,100530.28
2022-11-25T09:21:33.571Z,100537.41
2022-11-25T09:24:00.497Z,100535.38
2022-11-25T09:26:31.858Z,100534.81
2022-11-25T09:28:58.874Z,100535.09
2022-11-25T09:31:25.845Z,100536.31
2022-11-25T09:33:53.206Z,100520.06
2022-11-25T09:36:21.187Z,100537.06
2022-11-25T09:38:48.440Z,100528.59
2022-11-25T09:41:54.102Z,100534.78
2022-11-25T09:45:06.854Z,100539.16
2022-11-25T09:48:10.377Z,100531.34
2022-11-25T09:51:07.840Z,100539.69
2022-11-25T09:53:34.718Z,100553.66
2022-11-25T09:56:27.771Z,100544.25
2022-11-25T09:59:29.689Z,100543.34
2022-11-25T10:02:11.470Z,100549.22
2022-11-25T10:04:47.818Z,100548.16
2022-11-25T10:07:25.392Z,100550.66
2022-11-25T10:09:53.150Z,100549.75
2022-11-25T10:12:28.043Z,100546.38
2022-11-25T10:15:12.812Z,100551.91
2022-11-25T10:17:53.350Z,100547.94
2022-11-25T10:20:33.853Z,100557.44
2022-11-25T10:23:12.344Z,100552.09
2022-11-25T10:25:48.407Z,100548.59
2022-11-25T10:28:23.602Z,100561.16
2022-11-25T10:31:22.393Z,100556.94
2022-11-25T10:33:52.946Z,100563.25
2022-11-25T10:36:36.915Z,100562.34
2022-11-25T10:39:29.975Z,100563.34
2022-11-25T10:41:59.665Z,100562.66
2022-11-25T10:44:32.804Z,100566.06
2022-11-25T10:47:47.448Z,100575.38
2022-11-25T10:50:17.521Z,100567.53
2022-11-25T10:52:58.090Z,100567.81
2022-11-25T10:55:29.869Z,100573.22
2022-11-25T10:57:57.809Z,100575.38
2022-11-25T11:00:36.204Z,100574.25
2022-11-25T11:03:26.560Z,100563.97
2022-11-25T11:05:54.709Z,100572.25
2022-11-25T11:08:38.529Z,100569.72
2022-11-25T11:11:19.368Z,100573.09
2022-11-25T11:13:48.405Z,100577.06
2022-11-25T11:16:28.550Z,100575.63
2022-11-25T11:18:57.276Z,100575.88
2022-11-25T11:21:33.219Z,100573.41
2022-11-25T11:24:01.837Z,100570.91
2022-11-25T11:26:36.122Z,100571.75
2022-11-25T11:29:17.191Z,100568.53
2022-11-25T11:32:25.192Z,100565.34
2022-11-25T11:35:17.763Z,100568.25
2022-11-25T11:37:47.746Z,100579.09
2022-11-25T11:40:46.492Z,100578.56
2022-11-25T11:43:39.734Z,100568.78
2022-11-25T11:46:32.722Z,100579.25
2022-11-25T11:49:05.630Z,100580.34
2022-11-25T11:51:55.900Z,100577.03
2022-11-25T11:54:36.781Z,100571.59
2022-11-25T11:57:21.369Z,100584.50
2022-11-25T11:59:56.144Z,100582.19
2022-11-25T12:02:54.592Z,100578.31
2022-11-25T12:05:27.438Z,100576.59
2022-11-25T12:08:16.168Z,100578.00
2022-11-25T12:10:54.495Z,100579.16
2022-11-25T12:13:48.398Z,100570.56
2022-11-25T12:16:21.030Z,100574.44
2022-11-25T12:18:55.173Z,100571.34
2022-11-25T12:21:44.127Z,100574.00
2022-11-25T12:24:29.560Z,100575.41
2022-11-25T12:27:27.593Z,100573.00
2022-11-25T12:30:22.057Z,100583.22
2022-11-25T12:33:11.021Z,100577.16
2022-11-25T12:35:53.473Z,100582.72
2022-11-25T12:38:47.372Z,100575.97
2022-11-25T12:41:28.394Z,100585.59
2022-11-25T12:44:46.155Z,100580.56
2022-11-25T12:47:13.143Z,100590.00
2022-11-25T12:49:46.069Z,100574.44
2022-11-25T12:52:38.091Z,100585.72
2022-11-25T12:55:18.732Z,100592.28
2022-11-25T12:58:19.723Z,100590.16
2022-11-25T13:01:16.692Z,100589.38
2022-11-25T13:04:11.471Z,100588.03
2022-11-25T13:07:17.486Z,100591.91
2022-11-25T13:10:15.254Z,100592.25
2022-11-25T13:13:00.261Z,100584.53
2022-11-25T13:15:48.420Z,100589.97
2022-11-25T13:18:23.766Z,100585.41
2022-11-25T13:20:56.263Z,100590.28
2022-11-25T13:23:41.404Z,100594.19
2022-11-25T13:26:36.736Z,100587.94
2022-11-25T13:29:26.710Z,100585.41
2022-11-25T13:32:25.151Z,100593.13
2022-11-25T13:35:26.723Z,100589.28
2022-11-25T13:37:53.652Z,100593.09
2022-11-25T13:40:23.460Z,100595.81
2022-11-25T13:42:52.269Z,100594.56
2022-11-25T13:45:39.261Z,100599.88
2022-11-25T13:48:37.987Z,100601.13
2022-11-25T13:51:22.061Z,100602.00
2022-11-25T13:54:01.347Z,100608.78
2022-11-25T13:56:36.046Z,100617.34
2022-11-25T13:59:11.738Z,100605.03
2022-11-25T14:01:46.748Z,100617.94
2022-11-25T14:04:15.693Z,100610.00
2022-11-25T14:07:20.676Z,100612.91
2022-11-25T14:10:15.279Z,100620.91
2022-11-25T14:13:14.538Z,100602.78
2022-11-25T14:16:12.662Z,100615.00
2022-11-25T14:19:43.312Z,100612.09
2022-11-25T14:22:20.603Z,100618.63
2022-11-25T14:24:55.004Z,100613.22
2022-11-25T14:27:28.918Z,100611.22
2022-11-25T14:30:05.216Z,100613.31
2022-11-25T14:32:43.724Z,100614.50
2022-11-25T14:35:41.674Z,100621.38
2022-11-25T14:38:45.177Z,100623.31
2022-11-25T14:41:53.357Z,100628.28
2022-11-25T14:44:29.859Z,100634.41
2022-11-25T14:47:03.216Z,100636.97
2022-11-25T14:50:32.925Z,100631.00
2022-11-25T14:52:50.764Z,100638.97
2022-11-25T14:55:31.474Z,100641.69
2022-11-25T14:57:58.787Z,100631.81
2022-11-25T15:00:25.941Z,100640.34
2022-11-25T15:03:01.874Z,100647.72
2022-11-25T15:05:38.466Z,100652.25
2022-11-25T15:08:08.111Z,100657.34
2022-11-25T15:11:01.179Z,100653.50
2022-11-25T15:13:43.030Z,100654.00
2022-11-25T15:16:23.606Z,100654.63
2022-11-25T15:18:58.528Z,100659.72
2022-11-25T15:22:07.084Z,100656.56
2022-11-25T15:24:30.648Z,100657.03
2022-11-25T15:27:01.189Z,100661.97
2022-11-25T15:29:31.418Z,100670.06
2022-11-25T15:32:00.243Z,100662.53
2022-11-25T15:34:29.748Z,100658.16
2022-11-25T15:37:00.823Z,100660.81
2022-11-25T15:39:28.101Z,100660.63
2022-11-25T15:42:07.488Z,100662.66
2022-11-25T15:44:46.515Z,100670.72
2022-11-25T15:47:23.115Z,100662.63
2022-11-25T15:50:04.594Z,100658.91
2022-11-25T15:52:40.789Z,100659.69
2022-11-25T15:55:38.666Z,100664.03
2022-11-25T15:58:21.524Z,100671.69
2022-11-25T16:01:15.977Z,100662.75
2022-11-25T16:03:44.848Z,100661.84
2022-11-25T16:06:24.893Z,100671.84
2022-11-25T16:08:55.644Z,100665.88
2022-11-25T16:11:25.696Z,100663.84
2022-11-25T16:13:53.555Z,100662.81
2022-11-25T16:16:30.059Z,100655.13
2022-11-25T16:19:06.709Z,100655.53
2022-11-25T16:21:36.672Z,100658.19
2022-11-25T16:24:06.506Z,100661.06
2022-11-25T16:26:48.123Z,100659.69
2022-11-25T16:29:26.280Z,100670.06
2022-11-25T16:31:53.331Z,100673.88
2022-11-25T16:34:21.933Z,100665.84
2022-11-25T16:36:48.857Z,100666.34
2022-11-25T16:39:16.036Z,100666.34
2022-11-25T16:41:46.285Z,100665.66
2022-11-25T16:44:19.515Z,100666.81
2022-11-25T16:46:46.605Z,100665.03
2022-11-25T16:49:16.465Z,100668.78
2022-11-25T16:51:43.931Z,100663.88
2022-11-25T16:54:12.413Z,100675.00
2022-11-25T16:56:43.760Z,100677.84
2022-11-25T16:59:19.437Z,100669.75
2022-11-25T17:01:47.315Z,100675.28
2022-11-25T17:04:15.437Z,100681.00
2022-11-25T17:06:50.566Z,100679.06
2022-11-25T17:09:32.435Z,100675.75
2022-11-25T17:11:59.399Z,100682.78
2022-11-25T17:14:34.745Z,100678.72
2022-11-25T17:17:03.537Z,100685.25
2022-11-25T17:19:31.219Z,100679.72
2022-11-25T17:21:58.428Z,100680.34
2022-11-25T17:24:25.766Z,100683.75
2022-11-25T17:27:01.225Z,100692.75
2022-11-25T17:29:42.723Z,100684.28
2022-11-25T17:32:13.740Z,100688.84
2022-11-25T17:34:40.881Z,100695.59
2022-11-25T17:37:18.080Z,100689.06
2022-11-25T17:39:45.153Z,100685.28
2022-11-25T17:42:15.946Z,100689.53
2022-11-25T17:44:49.866Z,100684.44
2022-11-25T17:47:19.960Z,100692.91
2022-11-25T17:49:46.982Z,100678.59
2022-11-25T17:52:13.927Z,100685.59
2022-11-25T17:54:41.430Z,100684.03
2022-11-25T17:57:21.049Z,100692.22
2022-11-25T17:59:48.411Z,100690.41
2022-11-25T18:02:21.639Z,100701.69
2022-11-25T18:04:49.814Z,100700.84
2022-11-25T18:07:17.975Z,100697.88
2022-11-25T18:09:45.517Z,100701.59
2022-11-25T18:12:27.411Z,100689.38
2022-11-25T18:14:55.824Z,100692.59
2022-11-25T18:17:23.143Z,100698.28
2022-11-25T18:19:54.916Z,100697.13
2022-11-25T18:22:24.037Z,100698.94
2022-11-25T18:24:52.980Z,100691.56
2022-11-25T18:27:28.171Z,100692.69
2022-11-25T18:29:56.554Z,100698.03
2022-11-25T18:32:24.875Z,100699.38
2022-11-25T18:34:52.032Z,100701.63
2022-11-25T18:37:19.054Z,100703.16
2022-11-25T18:39:46.718Z,100703.94
2022-11-25T18:42:27.329Z,100703.00
2022-11-25T18:44:56.215Z,100711.97
2022-11-25T18:47:23.306Z,100717.97
2022-11-25T18:49:55.416Z,100711.63
2022-11-25T18:52:24.768Z,100717.19
2022-11-25T18:54:51.926Z,100719.59
2022-11-25T18:57:19.035Z,100715.03
2022-11-25T18:59:48.020Z,100711.78
2022-11-25T19:02:23.285Z,100718.09
2022-11-25T19:04:50.309Z,100704.06
2022-11-25T19:07:17.502Z,100715.72
2022-11-25T19:09:44.636Z,100714.69
2022-11-25T19:12:20.883Z,100715.13
2022-11-25T19:14:50.251Z,100726.97
2022-11-25T19:17:24.295Z,100727.94
2022-11-25T19:19:51.311Z,100719.78
2022-11-25T19:22:18.958Z,100728.97
2022-11-25T19:24:46.263Z,100727.81
2022-11-25T19:27:35.682Z,100734.47
2022-11-25T19:30:03.191Z,100738.16
2022-11-25T19:32:32.558Z,100737.16
2022-11-25T19:35:05.485Z,100747.56
2022-11-25T19:37:32.598Z,100741.19
2022-11-25T19:39:59.845Z,100744.03
2022-11-25T19:42:28.408Z,100737.00
2022-11-25T19:44:55.405Z,100747.03
2022-11-25T19:47:26.036Z,100752.31
2022-11-25T19:49:59.037Z,100751.06
2022-11-25T19:52:38.088Z,100756.38
2022-11-25T19:55:27.282Z,100753.69
2022-11-25T19:57:55.124Z,100759.25
2022-11-25T20:00:25.592Z,100764.09
2022-11-25T20:02:55.166Z,100768.97
2022-11-25T20:05:35.062Z,100775.19
2022-11-25T20:08:02.248Z,100777.38
2022-11-25T20:10:32.148Z,100779.97
2022-11-25T20:12:59.405Z,100773.19
2022-11-25T20:15:27.368Z,100775.72
2022-11-25T20:17:58.642Z,100781.16
2022-11-25T20:20:33.911Z,100784.94
2022-11-25T20:23:20.773Z,100787.91
2022-11-25T20:25:49.500Z,100791.19
2022-11-25T20:28:26.910Z,100793.53
2022-11-25T20:30:54.628Z,100799.56
2022-11-25T20:33:24.680Z,100796.19
2022-11-25T20:36:03.039Z,100796.19
2022-11-25T20:38:32.620Z,100796.28
2022-11-25T20:41:01.108Z,100796.72
2022-11-25T20:43:41.338Z,100806.03
2022-11-25T20:46:22.938Z,100792.88
2022-11-25T20:48:55.429Z,100797.97
2022-11-25T20:51:24.308Z,100800.47
2022-11-25T20:53:58.051Z,100802.72
2022-11-25T20:56:27.831Z,100797.31
2022-11-25T20:58:54.934Z,100803.75
2022-11-25T21:01:22.165Z,100804.31
2022-11-25T21:03:50.260Z,100798.56
2022-11-25T21:06:25.716Z,100807.75
2022-11-25T21:08:54.898Z,100811.69
2022-11-25T21:11:23.172Z,100797.75
2022-11-25T21:13:51.925Z,100813.75
2022-11-25T21:16:19.055Z,100806.81
2022-11-25T21:18:46.137Z,100805.47
2022-11-25T21:21:33.643Z,100801.72
2022-11-25T21:24:08.565Z,100802.38
2022-11-25T21:26:35.563Z,100801.25
2022-11-25T21:29:02.489Z,100796.53
2022-11-25T21:31:30.255Z,100808.63
2022-11-25T21:34:01.175Z,100803.53
2022-11-25T21:36:30.939Z,100812.94
2022-11-25T21:39:12.660Z,100811.03
2022-11-25T21:41:39.813Z,100813.72
2022-11-25T21:44:07.699Z,100805.34
2022-11-25T21:46:34.810Z,100811.56
2022-11-25T21:49:01.819Z,100818.06
2022-11-25T21:51:28.768Z,100811.69
2022-11-25T21:53:55.709Z,100805.75
2022-11-25T21:56:34.019Z,100817.59
2022-11-25T21:59:03.916Z,100817.47
2022-11-25T22:01:31.157Z,100822.13
2022-11-25T22:03:58.443Z,100819.59
2022-11-25T22:06:33.542Z,100823.91
2022-11-25T22:09:00.552Z,100825.50
2022-11-25T22:11:43.930Z,100818.94
2022-11-25T22:14:39.965Z,100828.00
2022-11-25T22:17:14.559Z,100831.75
2022-11-25T22:19:41.524Z,100829.13
2022-11-25T22:22:16.437Z,100829.47
2022-11-25T22:24:43.892Z,100839.22
2022-11-25T22:27:25.083Z,100834.34
2022-11-25T22:29:53.060Z,100838.28
2022-11-25T22:32:20.007Z,100845.56
2022-11-25T22:34:48.023Z,100843.41
2022-11-25T22:37:23.711Z,100850.53
2022-11-25T22:39:50.893Z,100854.75
2022-11-25T22:42:31.580Z,100852.03
2022-11-25T22:45:00.921Z,100854.75
2022-11-25T22:47:36.158Z,100860.66
2022-11-25T22:50:11.932Z,100863.03
2022-11-25T22:52:38.889Z,100861.44
2022-11-25T22:55:14.866Z,100864.59
2022-11-25T22:57:41.877Z,100861.09
2022-11-25T23:00:18.211Z,100862.78
2022-11-25T23:02:45.457Z,100863.94
2022-11-25T23:05:33.047Z,100857.91
2022-11-25T23:08:02.546Z,100861.31
2022-11-25T23:10:31.551Z,100863.72
2022-11-25T23:12:58.538Z,100869.69
2022-11-25T23:15:25.852Z,100867.44
2022-11-25T23:18:01.902Z,100875.59
2022-11-25T23:20:36.388Z,100870.16
2022-11-25T23:23:27.073Z,100871.66
2022-11-25T23:25:55.815Z,100868.56
2022-11-25T23:28:22.781Z,100870.28
2022-11-25T23:30:58.465Z,100868.91
2022-11-25T23:33:37.005Z,100870.06
2022-11-25T23:36:28.775Z,100870.97
2022-11-25T23:39:01.723Z,100863.50
2022-11-25T23:41:32.439Z,100871.66
2022-11-25T23:44:31.662Z,100880.59
2022-11-25T23:47:04.761Z,100882.41
2022-11-25T23:49:40.335Z,100878.44
2022-11-25T23:52:14.148Z,100876.41
2022-11-25T23:54:47.669Z,100880.94
2022-11-25T23:57:31.621Z,100875.38
2022-11-25T23:59:58.969Z,100887.03
